Time;durP1;ratioP1;P1;durP2;ratioP2;P2;SDS_P1;SDS_P2;PMS_P1;PMS_P2;Temp;Humidity;BMP_temperature;BMP_pressure;BME280_temperature;BME280_humidity;BME280_pressure;Samples;Min_cycle;Max_cycle;Signal;HPM_P1;HPM_P2
2023/11/10 00:00:29;;;;;;;;;;;;;;;25.43;42.26;93149.91;5025675;28;9048;-57
2023/11/10 00:03:02;;;;;;;;;;;;;;;25.42;42.76;93121.66;5048593;28;9208;-57
2023/11/10 00:05:29;;;;;;;;;;;;;;;25.45;42.22;93128.09;5047632;28;7446;-57
2023/11/10 00:07:59;;;;;;;;;;;;;;;25.43;42.65;93145.16;5050978;28;7383;-57
2023/11/10 00:10:28;;;;;;;;;;;;;;;25.41;42.24;93142.19;5039759;28;7239;-57
2023/11/10 00:12:55;;;;;;;;;;;;;;;25.41;42.04;93144.19;5023418;28;9278;-52
2023/11/10 00:15:24;;;;;;;;;;;;;;;25.39;42.36;93138.50;5038212;28;7540;-52
2023/11/10 00:17:53;;;;;;;;;;;;;;;25.38;42.74;93121.22;5045806;28;6996;-51
2023/11/10 00:20:22;;;;;;;;;;;;;;;25.38;42.43;93106.75;5035353;28;7192;-52
2023/11/10 00:22:52;;;;;;;;;;;;;;;25.40;42.64;93112.44;5017445;28;6975;-52
2023/11/10 00:25:23;;;;;;;;;;;;;;;25.39;42.56;93097.19;5045298;28;7254;-50
2023/11/10 00:27:54;;;;;;;;;;;;;;;25.38;41.94;93104.72;5027539;28;7654;-51
2023/11/10 00:30:34;;;;;;;;;;;;;;;25.36;42.08;93101.75;5034199;28;7227;-51
2023/11/10 00:33:15;;;;;;;;;;;;;;;25.38;42.12;93107.47;5036587;28;9547;-49
2023/11/10 00:35:43;;;;;;;;;;;;;;;25.41;41.94;93119.41;5036749;28;6993;-51
2023/11/10 00:38:17;;;;;;;;;;;;;;;25.38;42.59;93101.25;5029589;28;6961;-49
2023/11/10 00:40:48;;;;;;;;;;;;;;;25.39;42.77;93097.19;5021451;28;7435;-49
2023/11/10 00:43:15;;;;;;;;;;;;;;;25.35;41.97;93094.06;5044501;28;9508;-52
2023/11/10 00:45:53;;;;;;;;;;;;;;;25.37;41.86;93088.75;5027845;28;7193;-52
2023/11/10 00:48:24;;;;;;;;;;;;;;;25.36;42.02;93090.00;5047149;28;9073;-52
2023/11/10 00:50:52;;;;;;;;;;;;;;;25.37;41.95;93080.50;5042158;28;7355;-49
2023/11/10 00:53:32;;;;;;;;;;;;;;;25.37;42.36;93089.50;5052880;28;7254;-51
2023/11/10 00:56:07;;;;;;;;;;;;;;;25.37;41.74;93088.75;5041171;28;7567;-50
2023/11/10 00:58:39;;;;;;;;;;;;;;;25.36;42.32;93081.75;5058599;28;7085;-50
2023/11/10 01:01:07;;;;;;;;;;;;;;;25.39;41.77;93083.44;5039493;28;7083;-52
2023/11/10 01:04:02;;;;;;;;;;;;;;;25.40;41.78;93071.16;5028470;28;9050;-49
2023/11/10 01:06:39;;;;;;;;;;;;;;;25.39;42.28;93066.94;4974954;28;9157;-51
2023/11/10 01:09:15;;;;;;;;;;;;;;;25.35;42.19;93067.28;4957217;28;9190;-51
2023/11/10 01:11:52;;;;;;;;;;;;;;;25.35;41.71;93063.78;4961029;28;6924;-52
2023/11/10 01:14:22;;;;;;;;;;;;;;;25.37;42.69;93058.47;4970628;28;6994;-52
2023/11/10 01:16:57;;;;;;;;;;;;;;;25.35;42.00;93061.03;4961700;28;7133;-50
2023/11/10 01:19:54;;;;;;;;;;;;;;;25.35;42.67;93064.53;4958410;28;8233;-52
2023/11/10 01:22:22;;;;;;;;;;;;;;;25.35;42.67;93072.03;4908878;29;9138;-50
2023/11/10 01:25:10;;;;;;;;;;;;;;;25.34;42.47;93063.03;4904276;29;7235;-50
2023/11/10 01:27:44;;;;;;;;;;;;;;;25.35;42.14;93072.03;4917038;29;9154;-51
2023/11/10 01:30:13;;;;;;;;;;;;;;;25.34;42.04;93071.28;4907145;29;7038;-51
2023/11/10 01:32:43;;;;;;;;;;;;;;;25.35;41.90;93058.28;4901785;29;7081;-50
2023/11/10 01:35:11;;;;;;;;;;;;;;;25.35;42.64;93055.53;4908361;29;9071;-52
2023/11/10 01:38:10;;;;;;;;;;;;;;;25.35;42.67;93061.78;4926126;29;9536;-52
2023/11/10 01:40:52;;;;;;;;;;;;;;;25.34;42.52;93060.28;4843835;29;7267;-50
2023/11/10 01:43:57;;;;;;;;;;;;;;;25.35;42.20;93052.78;4902785;29;7504;-52
2023/11/10 01:46:53;;;;;;;;;;;;;;;25.35;42.52;93047.28;4936902;28;8780;-50
2023/11/10 01:49:28;;;;;;;;;;;;;;;25.34;42.22;93052.03;4921919;28;7208;-53
2023/11/10 01:52:28;;;;;;;;;;;;;;;25.34;42.64;93054.78;4922530;29;7142;-52
2023/11/10 01:55:15;;;;;;;;;;;;;;;25.33;41.96;93038.81;4932780;29;7500;-50
2023/11/10 01:57:54;;;;;;;;;;;;;;;25.33;41.80;93033.31;4920185;28;7391;-52
2023/11/10 02:00:29;;;;;;;;;;;;;;;25.33;42.28;93036.81;4983229;28;7654;-51
2023/11/10 02:03:16;;;;;;;;;;;;;;;25.32;42.17;93034.56;4950661;28;7258;-49
2023/11/10 02:05:54;;;;;;;;;;;;;;;25.34;42.01;93029.28;4958885;28;7202;-52
2023/11/10 02:08:41;;;;;;;;;;;;;;;25.33;41.88;93036.81;4968107;28;7417;-49
2023/11/10 02:11:32;;;;;;;;;;;;;;;25.35;41.92;93037.00;4967823;28;7118;-51
2023/11/10 02:14:02;;;;;;;;;;;;;;;25.35;41.52;93030.75;4977514;28;9608;-50
2023/11/10 02:16:59;;;;;;;;;;;;;;;25.37;42.36;93030.94;4990739;28;6967;-52
2023/11/10 02:20:03;;;;;;;;;;;;;;;25.37;42.37;93041.97;5045215;28;7189;-50
2023/11/10 02:22:44;;;;;;;;;;;;;;;25.38;42.31;93048.94;4953537;28;8797;-51
2023/11/10 02:25:20;;;;;;;;;;;;;;;25.33;41.62;93044.31;4963211;28;7072;-52
2023/11/10 02:27:46;;;;;;;;;;;;;;;25.33;42.50;93036.81;4946681;28;9277;-51
2023/11/10 02:30:13;;;;;;;;;;;;;;;25.33;41.69;93025.81;4950910;28;7534;-51
2023/11/10 02:32:50;;;;;;;;;;;;;;;25.33;41.69;93003.03;4973176;28;8915;-54
2023/11/10 02:35:17;;;;;;;;;;;;;;;25.35;42.37;93005.97;4963825;28;7242;-54
2023/11/10 02:38:17;;;;;;;;;;;;;;;25.32;42.55;93021.56;4972916;28;7083;-55
2023/11/10 02:40:46;;;;;;;;;;;;;;;25.32;41.52;93024.31;4919271;29;8222;-54
2023/11/10 02:43:13;;;;;;;;;;;;;;;25.32;41.90;93029.81;4921523;29;7421;-54
2023/11/10 02:45:41;;;;;;;;;;;;;;;25.31;41.54;93022.13;4907496;29;7281;-54
2023/11/10 02:48:09;;;;;;;;;;;;;;;25.32;41.73;93037.34;4901365;29;7073;-54
2023/11/10 02:50:38;;;;;;;;;;;;;;;25.33;41.67;93033.31;4895710;29;7019;-54
2023/11/10 02:53:04;;;;;;;;;;;;;;;25.31;42.02;93019.34;4922193;28;8613;-54
2023/11/10 02:55:30;;;;;;;;;;;;;;;25.32;41.46;93026.31;4957512;28;8305;-54
2023/11/10 02:58:09;;;;;;;;;;;;;;;25.29;41.61;93030.88;4957414;28;8454;-54
2023/11/10 03:00:53;;;;;;;;;;;;;;;25.32;41.54;93032.56;4969263;28;7234;-54
2023/11/10 03:03:20;;;;;;;;;;;;;;;25.30;42.62;93039.88;4978475;28;7238;-54
2023/11/10 03:05:56;;;;;;;;;;;;;;;25.30;41.62;93035.13;4974048;28;7089;-54
2023/11/10 03:08:24;;;;;;;;;;;;;;;25.29;42.56;93033.63;4974884;28;7116;-54
2023/11/10 03:11:06;;;;;;;;;;;;;;;25.33;42.53;93014.78;4962627;28;7420;-54
2023/11/10 03:13:32;;;;;;;;;;;;;;;25.34;42.12;93012.75;4973948;28;9116;-54
2023/11/10 03:16:04;;;;;;;;;;;;;;;25.34;42.15;93016.25;4998359;28;6987;-54
2023/11/10 03:19:04;;;;;;;;;;;;;;;25.34;41.73;93023.75;5038838;28;7014;-54
2023/11/10 03:21:31;;;;;;;;;;;;;;;25.31;42.34;93031.09;5022036;28;7308;-55
2023/11/10 03:23:57;;;;;;;;;;;;;;;25.34;42.03;93030.00;5051829;28;7310;-54
2023/11/10 03:26:28;;;;;;;;;;;;;;;25.33;41.49;93016.81;5025491;28;7055;-54
2023/11/10 03:33:00;;;;;;;;;;;;;;;25.32;42.32;93015.31;5048171;28;7311;-54
2023/11/10 03:35:35;;;;;;;;;;;;;;;25.33;41.83;93022.31;5043902;28;7089;-54
2023/11/10 03:38:05;;;;;;;;;;;;;;;25.33;41.92;93019.56;5045708;28;7326;-54
2023/11/10 03:40:39;;;;;;;;;;;;;;;25.31;41.86;93033.13;5029297;28;6996;-54
2023/11/10 03:43:33;;;;;;;;;;;;;;;25.31;41.81;93009.09;5053036;28;7319;-60
2023/11/10 03:46:00;;;;;;;;;;;;;;;25.32;42.33;93027.06;5044917;28;7311;-60
2023/11/10 03:48:33;;;;;;;;;;;;;;;25.34;42.15;93023.75;5033676;28;9146;-60
2023/11/10 03:51:08;;;;;;;;;;;;;;;25.32;41.51;93010.56;5027754;28;9173;-60
2023/11/10 03:53:49;;;;;;;;;;;;;;;25.32;42.03;93007.06;5034276;28;7293;-60
2023/11/10 03:56:26;;;;;;;;;;;;;;;25.34;42.24;93007.25;5045280;28;7257;-60
2023/11/10 03:59:32;;;;;;;;;;;;;;;25.34;42.39;92993.50;5044131;28;7239;-60
2023/11/10 04:02:10;;;;;;;;;;;;;;;25.33;41.92;92987.28;4990666;28;7850;-60
2023/11/10 04:04:36;;;;;;;;;;;;;;;25.33;41.34;92983.78;5012139;28;9494;-60
2023/11/10 04:07:35;;;;;;;;;;;;;;;25.30;41.66;92995.84;5012019;28;7947;-60
2023/11/10 04:10:20;;;;;;;;;;;;;;;25.30;41.98;92995.84;4992261;28;7234;-60
2023/11/10 04:12:50;;;;;;;;;;;;;;;25.29;42.35;93000.63;4985065;28;7224;-60
2023/11/10 04:15:17;;;;;;;;;;;;;;;25.31;41.85;92991.84;4975993;28;7281;-60
2023/11/10 04:18:12;;;;;;;;;;;;;;;25.31;41.37;93008.34;4992151;28;7418;-60
2023/11/10 04:20:45;;;;;;;;;;;;;;;25.27;41.93;93018.97;4988833;28;7480;-60
2023/11/10 04:23:25;;;;;;;;;;;;;;;25.28;41.84;93023.94;4999660;28;7278;-60
2023/11/10 04:26:06;;;;;;;;;;;;;;;25.28;41.51;93025.94;4989393;28;9174;-60
2023/11/10 04:28:34;;;;;;;;;;;;;;;25.31;41.79;93033.88;4996598;28;7049;-60
2023/11/10 04:31:10;;;;;;;;;;;;;;;25.33;42.45;93044.31;4992153;28;8908;-60
2023/11/10 04:33:43;;;;;;;;;;;;;;;25.32;42.39;93040.09;4977040;28;7009;-60
2023/11/10 04:36:12;;;;;;;;;;;;;;;25.33;41.43;93041.56;4981451;28;6987;-60
2023/11/10 04:38:41;;;;;;;;;;;;;;;25.31;41.92;93044.88;4993602;28;8985;-60
2023/11/10 04:41:27;;;;;;;;;;;;;;;25.32;41.27;93042.84;4966821;28;7251;-60
2023/11/10 04:43:53;;;;;;;;;;;;;;;25.29;42.24;93033.63;4983003;28;7193;-60
2023/11/10 04:46:19;;;;;;;;;;;;;;;25.33;41.72;93044.31;5014213;28;7645;-60
2023/11/10 04:48:46;;;;;;;;;;;;;;;25.31;41.94;93031.09;5036769;28;7067;-60
2023/11/10 04:51:12;;;;;;;;;;;;;;;25.33;41.93;93028.56;5049939;28;7037;-60
2023/11/10 04:53:42;;;;;;;;;;;;;;;25.33;42.22;93036.06;5023781;28;9056;-52
2023/11/10 04:56:11;;;;;;;;;;;;;;;25.32;41.44;93032.56;5050450;28;7398;-51
2023/11/10 04:58:43;;;;;;;;;;;;;;;25.32;42.23;93029.06;5036620;28;7420;-49
2023/11/10 05:01:11;;;;;;;;;;;;;;;25.31;41.67;93024.88;5042910;28;9095;-51
2023/11/10 05:03:38;;;;;;;;;;;;;;;25.30;41.64;93004.13;5029092;28;7250;-52
2023/11/10 05:06:13;;;;;;;;;;;;;;;25.31;41.42;93022.13;5034860;28;7144;-51
2023/11/10 05:08:51;;;;;;;;;;;;;;;25.30;42.27;93024.13;5052981;28;8875;-51
2023/11/10 05:11:22;;;;;;;;;;;;;;;25.28;42.64;93026.69;5046465;28;7004;-52
2023/11/10 05:13:56;;;;;;;;;;;;;;;25.28;41.53;93034.19;5042292;28;7513;-50
2023/11/10 05:16:37;;;;;;;;;;;;;;;25.30;42.16;93031.63;5029173;28;8379;-51
2023/11/10 05:19:23;;;;;;;;;;;;;;;25.30;41.69;93050.91;5022397;28;7270;-50
2023/11/10 05:21:56;;;;;;;;;;;;;;;25.31;41.99;93066.88;5021448;28;7436;-51
2023/11/10 05:24:55;;;;;;;;;;;;;;;25.31;41.27;93074.41;5037035;28;7024;-51
2023/11/10 05:31:27;;;;;;;;;;;;;;;25.31;41.81;93085.41;5000814;28;7535;-51
2023/11/10 05:34:03;;;;;;;;;;;;;;;25.32;41.81;93070.34;4995677;28;6993;-51
2023/11/10 05:36:29;;;;;;;;;;;;;;;25.31;41.29;93082.66;4997746;28;9045;-51
2023/11/10 05:39:03;;;;;;;;;;;;;;;25.31;42.16;93088.16;4986096;28;9426;-50
2023/11/10 05:41:44;;;;;;;;;;;;;;;25.31;41.58;93077.16;4976930;28;7233;-52
2023/11/10 05:44:23;;;;;;;;;;;;;;;25.28;41.35;93058.97;4980424;28;6962;-51
2023/11/10 05:47:09;;;;;;;;;;;;;;;25.31;41.55;93063.41;4971309;28;7255;-52
2023/11/10 05:49:47;;;;;;;;;;;;;;;25.27;41.12;93057.50;4994021;28;7269;-52
2023/11/10 05:52:30;;;;;;;;;;;;;;;25.28;41.70;93064.47;4988688;28;8064;-51
2023/11/10 05:55:25;;;;;;;;;;;;;;;25.32;42.41;93078.63;4989984;28;6992;-52
2023/11/10 05:57:52;;;;;;;;;;;;;;;25.34;42.73;93079.56;5000760;28;7232;-51
2023/11/10 06:00:34;;;;;;;;;;;;;;;25.37;42.45;93084.00;4982980;28;7222;-50
2023/11/10 06:03:02;;;;;;;;;;;;;;;25.41;42.29;93073.38;5019486;28;8989;-59
2023/11/10 06:05:34;;;;;;;;;;;;;;;25.47;42.01;93084.25;5036232;28;8443;-59
2023/11/10 06:08:06;;;;;;;;;;;;;;;25.51;42.22;93083.91;5044846;28;7858;-59
2023/11/10 06:10:34;;;;;;;;;;;;;;;25.55;41.66;93095.31;5035597;28;9091;-58
2023/11/10 06:13:01;;;;;;;;;;;;;;;25.51;41.98;93101.19;5030664;28;7054;-58
2023/11/10 06:15:31;;;;;;;;;;;;;;;25.56;41.38;93099.53;5030370;28;7203;-58
2023/11/10 06:18:20;;;;;;;;;;;;;;;25.51;42.16;93098.44;5032775;28;8956;-58
2023/11/10 06:21:05;;;;;;;;;;;;;;;25.46;42.46;93099.31;5029940;28;7025;-59
2023/11/10 06:23:34;;;;;;;;;;;;;;;25.45;42.01;93108.81;5041022;28;7226;-59
2023/11/10 06:26:05;;;;;;;;;;;;;;;25.43;42.29;93106.63;5034917;28;7326;-58
2023/11/10 06:29:03;;;;;;;;;;;;;;;25.42;42.64;93115.44;5033735;28;7325;-59
2023/11/10 06:31:37;;;;;;;;;;;;;;;25.46;42.06;93104.06;4995187;28;9138;-59
2023/11/10 06:34:07;;;;;;;;;;;;;;;25.48;41.57;93105.00;5005573;28;9134;-58
2023/11/10 06:36:44;;;;;;;;;;;;;;;25.55;41.42;93109.81;5004214;28;7285;-59
2023/11/10 06:39:11;;;;;;;;;;;;;;;25.49;41.46;93100.97;5010937;28;7059;-58
2023/11/10 06:41:49;;;;;;;;;;;;;;;25.48;41.35;93087.75;5014501;28;6964;-58
2023/11/10 06:44:40;;;;;;;;;;;;;;;25.44;41.33;93093.59;5011131;28;8673;-58
2023/11/10 06:47:08;;;;;;;;;;;;;;;25.43;42.07;93076.34;5006579;28;7044;-58
2023/11/10 06:49:53;;;;;;;;;;;;;;;25.42;41.78;93098.91;4990123;28;8569;-58
2023/11/10 06:52:32;;;;;;;;;;;;;;;25.36;42.22;93082.50;5017144;28;7003;-59
2023/11/10 06:54:59;;;;;;;;;;;;;;;25.40;42.29;93084.94;5011585;28;6979;-58
2023/11/10 06:57:26;;;;;;;;;;;;;;;25.39;42.21;93077.94;5016780;28;9090;-58
2023/11/10 06:59:52;;;;;;;;;;;;;;;25.40;42.48;93082.88;4990827;28;9101;-59
2023/11/10 07:02:38;;;;;;;;;;;;;;;25.40;41.76;93082.16;4991727;28;8771;-59
2023/11/10 07:05:07;;;;;;;;;;;;;;;25.40;41.97;93084.94;4993098;28;6990;-58
2023/11/10 07:07:53;;;;;;;;;;;;;;;25.39;42.46;93086.19;5015014;28;7089;-59
2023/11/10 07:10:28;;;;;;;;;;;;;;;25.42;42.12;93090.66;5035009;28;9008;-59
2023/11/10 07:13:04;;;;;;;;;;;;;;;25.48;41.92;93091.25;5022203;28;7235;-61
2023/11/10 07:15:33;;;;;;;;;;;;;;;25.51;41.37;93092.19;5046047;28;6982;-60
2023/11/10 07:18:02;;;;;;;;;;;;;;;25.51;41.29;93081.91;5028987;28;7143;-61
2023/11/10 07:20:30;;;;;;;;;;;;;;;25.49;41.79;93092.69;5028850;28;9041;-60
2023/11/10 07:23:00;;;;;;;;;;;;;;;25.47;42.32;93100.75;5038555;28;7005;-60
2023/11/10 07:25:57;;;;;;;;;;;;;;;25.47;41.73;93091.78;5055438;28;7029;-60
2023/11/10 07:28:23;;;;;;;;;;;;;;;25.43;42.70;93100.38;5034109;28;7174;-60
2023/11/10 07:30:59;;;;;;;;;;;;;;;25.42;42.32;93099.63;5044145;28;7589;-60
2023/11/10 07:33:37;;;;;;;;;;;;;;;25.39;42.26;93097.94;5048208;28;7064;-60
2023/11/10 07:36:05;;;;;;;;;;;;;;;25.39;42.35;93094.44;5052474;28;9380;-60
2023/11/10 07:39:14;;;;;;;;;;;;;;;25.40;42.42;93107.66;5029788;28;9060;-60
2023/11/10 07:41:58;;;;;;;;;;;;;;;25.38;42.51;93099.22;5034126;28;7298;-60
2023/11/10 07:44:52;;;;;;;;;;;;;;;25.38;43.14;93106.75;5040654;28;7177;-61
2023/11/10 07:47:33;;;;;;;;;;;;;;;25.35;42.79;93105.81;5055167;28;8451;-60
2023/11/10 07:54:04;;;;;;;;;;;;;;;25.38;42.31;93112.25;4975893;28;7066;-60
2023/11/10 07:56:40;;;;;;;;;;;;;;;25.37;43.03;93110.75;4981521;28;8823;-60
2023/11/10 07:59:08;;;;;;;;;;;;;;;25.38;43.08;93115.00;4957211;28;8855;-59
2023/11/10 08:01:48;;;;;;;;;;;;;;;25.37;42.74;93111.50;4976413;28;8762;-60
2023/11/10 08:04:15;;;;;;;;;;;;;;;25.33;43.29;93108.38;4957418;28;8742;-60
2023/11/10 08:06:43;;;;;;;;;;;;;;;25.38;42.60;93106.75;4954615;28;7251;-60
2023/11/10 08:09:34;;;;;;;;;;;;;;;25.39;42.77;93121.97;4965585;28;9067;-60
2023/11/10 08:12:19;;;;;;;;;;;;;;;25.38;42.67;93118.47;4977891;28;7009;-60
2023/11/10 08:14:47;;;;;;;;;;;;;;;25.40;42.77;93112.44;4976275;28;7355;-60
2023/11/10 08:17:22;;;;;;;;;;;;;;;25.39;42.28;93119.97;4970349;28;7247;-60
2023/11/10 08:19:59;;;;;;;;;;;;;;;25.38;42.43;93101.25;4961054;28;7246;-60
2023/11/10 08:22:50;;;;;;;;;;;;;;;25.40;43.24;93101.44;4974035;28;7240;-57
2023/11/10 08:25:49;;;;;;;;;;;;;;;25.40;42.42;93109.69;4963192;28;6996;-57
2023/11/10 08:28:16;;;;;;;;;;;;;;;25.37;43.11;93108.00;4944908;28;9464;-57
2023/11/10 08:30:52;;;;;;;;;;;;;;;25.40;42.50;93115.22;5034655;28;6974;-57
2023/11/10 08:34:07;;;;;;;;;;;;;;;25.40;42.94;93123.47;5045788;28;7237;-57
2023/11/10 08:36:35;;;;;;;;;;;;;;;25.40;42.69;93112.44;5034695;28;8768;-57
2023/11/10 08:39:03;;;;;;;;;;;;;;;25.39;42.91;93119.97;5036981;28;7232;-57
2023/11/10 08:41:29;;;;;;;;;;;;;;;25.38;43.02;93120.50;5026529;28;7090;-57
2023/11/10 08:43:58;;;;;;;;;;;;;;;25.40;42.72;93129.69;5044664;28;8790;-57
2023/11/10 08:46:24;;;;;;;;;;;;;;;25.40;42.81;93126.94;5047481;28;8864;-57
2023/11/10 08:48:50;;;;;;;;;;;;;;;25.43;42.90;93123.13;5034403;28;8890;-57
2023/11/10 08:51:21;;;;;;;;;;;;;;;25.41;42.87;93122.16;5027874;28;6986;-57
2023/11/10 08:54:20;;;;;;;;;;;;;;;25.43;43.19;93130.66;5045335;28;7066;-57
2023/11/10 08:57:05;;;;;;;;;;;;;;;25.45;43.06;93130.13;4988720;28;9313;-57
2023/11/10 08:59:48;;;;;;;;;;;;;;;25.43;43.22;93125.16;4986725;28;7444;-57
2023/11/10 09:02:30;;;;;;;;;;;;;;;25.39;42.50;93125.47;4980279;28;7013;-57
2023/11/10 09:05:07;;;;;;;;;;;;;;;25.39;43.01;93125.47;4997736;28;7109;-57
2023/11/10 09:07:44;;;;;;;;;;;;;;;25.40;43.40;93126.22;4990470;28;8673;-57
2023/11/10 09:10:23;;;;;;;;;;;;;;;25.45;42.78;93124.63;4982099;28;7317;-57
2023/11/10 09:13:10;;;;;;;;;;;;;;;25.45;42.43;93122.59;4982837;28;7005;-57
2023/11/10 09:15:38;;;;;;;;;;;;;;;25.43;43.28;93119.63;4981230;28;7144;-58
2023/11/10 09:18:13;;;;;;;;;;;;;;;25.43;42.57;93125.16;4995628;28;9069;-57
2023/11/10 09:20:44;;;;;;;;;;;;;;;25.41;42.50;93130.44;4980654;28;7230;-58
2023/11/10 09:24:02;;;;;;;;;;;;;;;25.43;42.65;93134.16;4989720;28;9066;-57
2023/11/10 09:26:47;;;;;;;;;;;;;;;25.42;43.35;93127.16;4987617;28;7102;-57
2023/11/10 09:29:15;;;;;;;;;;;;;;;25.42;42.41;93127.16;4995423;28;7275;-57
2023/11/10 09:31:45;;;;;;;;;;;;;;;25.43;42.53;93128.66;4987439;28;7264;-51
2023/11/10 09:34:14;;;;;;;;;;;;;;;25.41;43.01;93135.94;5056083;28;7196;-51
2023/11/10 09:36:41;;;;;;;;;;;;;;;25.41;43.59;93136.69;5028905;28;7353;-52
2023/11/10 09:39:15;;;;;;;;;;;;;;;25.39;42.80;93141.97;5045815;28;7018;-51
2023/11/10 09:42:22;;;;;;;;;;;;;;;25.41;43.22;93144.19;5046194;28;9916;-51
2023/11/10 09:45:01;;;;;;;;;;;;;;;25.38;43.09;93135.00;4988488;28;7002;-52
2023/11/10 09:47:31;;;;;;;;;;;;;;;25.42;42.96;93145.72;4987754;28;7625;-52
2023/11/10 09:49:59;;;;;;;;;;;;;;;25.38;43.41;93145.28;4984919;28;6991;-50
2023/11/10 09:52:34;;;;;;;;;;;;;;;25.37;43.63;93150.03;4984503;28;8240;-52
2023/11/10 09:55:03;;;;;;;;;;;;;;;25.39;43.05;93160.50;4978091;28;7243;-50
2023/11/10 09:57:49;;;;;;;;;;;;;;;25.38;43.47;93150.78;4990173;28;7253;-51
2023/11/10 10:00:23;;;;;;;;;;;;;;;25.46;43.41;93148.84;4992484;28;9031;-51
2023/11/10 10:03:39;;;;;;;;;;;;;;;25.50;42.21;93157.50;4986822;28;9479;-52
2023/11/10 10:06:20;;;;;;;;;;;;;;;25.46;42.62;93148.09;4991545;28;8937;-50
2023/11/10 10:09:09;;;;;;;;;;;;;;;25.43;43.15;93147.16;4977132;28;7235;-51
2023/11/10 10:12:08;;;;;;;;;;;;;;;25.42;42.59;93145.72;4970539;28;7639;-52
2023/11/10 10:15:10;;;;;;;;;;;;;;;25.46;43.09;93137.84;4918065;29;6998;-52
2023/11/10 10:18:20;;;;;;;;;;;;;;;25.50;42.37;93135.47;4912062;29;7487;-52
2023/11/10 10:21:01;;;;;;;;;;;;;;;25.49;42.36;93149.78;4929206;28;6902;-52
2023/11/10 10:24:09;;;;;;;;;;;;;;;25.47;42.33;93133.78;4920734;29;8368;-51
2023/11/10 10:26:51;;;;;;;;;;;;;;;25.46;42.53;93131.59;4936351;29;8759;-51
2023/11/10 10:29:52;;;;;;;;;;;;;;;25.47;41.49;93125.53;4936171;28;7358;-52
2023/11/10 10:32:23;;;;;;;;;;;;;;;25.44;41.93;93123.88;4916948;29;7255;-51
2023/11/10 10:35:35;;;;;;;;;;;;;;;25.45;42.56;93124.63;4942760;28;7270;-52
2023/11/10 10:38:38;;;;;;;;;;;;;;;25.44;42.61;93123.88;4866176;29;7312;-51
2023/11/10 10:41:36;;;;;;;;;;;;;;;25.44;42.72;93126.63;4863506;29;7250;-51
2023/11/10 10:44:37;;;;;;;;;;;;;;;25.44;41.79;93134.88;4842863;29;7266;-58
2023/11/10 10:47:16;;;;;;;;;;;;;;;25.43;42.14;93128.66;4848459;29;6986;-58
2023/11/10 10:49:54;;;;;;;;;;;;;;;25.44;42.26;93123.88;4868048;29;6993;-58
2023/11/10 10:52:52;;;;;;;;;;;;;;;25.44;42.58;93110.13;4884457;29;7012;-58
2023/11/10 10:56:02;;;;;;;;;;;;;;;25.46;44.25;93115.81;4906314;29;6989;-58
2023/11/10 10:58:48;;;;;;;;;;;;;;;25.46;44.16;93104.81;4898175;29;9065;-58
2023/11/10 11:01:58;;;;;;;;;;;;;;;25.48;43.89;93105.00;4897819;29;7118;-58
2023/11/10 11:08:20;;;;;;;;;;;;;;;25.50;43.97;93096.19;4837868;29;9238;-58
2023/11/10 11:11:11;;;;;;;;;;;;;;;25.54;44.45;93091.81;4808719;29;8603;-59
2023/11/10 11:13:50;;;;;;;;;;;;;;;25.56;44.68;93080.25;4834707;29;7055;-58
2023/11/10 11:16:39;;;;;;;;;;;;;;;25.58;44.08;93075.69;4856376;29;8944;-58
2023/11/10 11:19:23;;;;;;;;;;;;;;;25.58;44.29;93074.97;4846080;29;9293;-58
2023/11/10 11:21:52;;;;;;;;;;;;;;;25.58;44.71;93074.97;4847677;29;7086;-58
2023/11/10 11:24:23;;;;;;;;;;;;;;;25.60;44.09;93062.13;4841153;29;7181;-58
2023/11/10 11:27:02;;;;;;;;;;;;;;;25.63;44.25;93057.53;4837918;29;9515;-58
2023/11/10 11:29:38;;;;;;;;;;;;;;;25.69;44.68;93063.63;4849287;29;7254;-58
2023/11/10 11:32:12;;;;;;;;;;;;;;;25.73;44.22;93053.03;4903212;28;7075;-58
2023/11/10 11:35:18;;;;;;;;;;;;;;;25.75;44.11;93056.69;4955698;28;7301;-58
2023/11/10 11:37:53;;;;;;;;;;;;;;;25.76;43.20;93047.16;4944401;28;7247;-59
2023/11/10 11:40:33;;;;;;;;;;;;;;;25.81;43.33;93048.28;4948498;28;9126;-58
2023/11/10 11:46:34;;;;;;;;;;;;;;;25.84;42.76;93044.41;5000983;28;7551;-59
2023/11/10 11:49:01;;;;;;;;;;;;;;;25.82;43.89;93041.47;5006076;28;7054;-58
2023/11/10 11:51:33;;;;;;;;;;;;;;;25.89;43.64;93049.03;4988073;28;8789;-58
2023/11/10 11:53:59;;;;;;;;;;;;;;;25.92;42.75;93045.94;4985735;28;7108;-59
2023/11/10 11:56:27;;;;;;;;;;;;;;;25.91;43.10;93036.19;5002877;28;7875;-58
2023/11/10 11:59:05;;;;;;;;;;;;;;;25.89;42.92;93041.53;5003971;28;8727;-59
2023/11/10 12:01:39;;;;;;;;;;;;;;;25.89;42.68;93047.03;5012764;28;9552;-59
2023/11/10 12:04:17;;;;;;;;;;;;;;;25.90;42.78;93045.72;4992986;28;7040;-58
2023/11/10 12:06:53;;;;;;;;;;;;;;;25.91;42.56;93046.47;5007349;28;7238;-57
2023/11/10 12:09:37;;;;;;;;;;;;;;;25.93;42.37;93050.16;4987656;28;7489;-58
2023/11/10 12:12:22;;;;;;;;;;;;;;;25.89;41.80;93038.75;4996047;28;6924;-57
2023/11/10 12:15:22;;;;;;;;;;;;;;;25.92;41.55;93047.97;4992799;28;9080;-58
2023/11/10 12:18:43;;;;;;;;;;;;;;;25.95;41.06;93052.38;4935059;28;9404;-58
2023/11/10 12:21:39;;;;;;;;;;;;;;;25.99;40.92;93047.25;4930448;28;7242;-58
2023/11/10 12:24:48;;;;;;;;;;;;;;;26.00;41.49;93049.47;4931222;28;7102;-58
2023/11/10 12:27:36;;;;;;;;;;;;;;;26.04;40.90;93038.81;4944981;28;8448;-57
2023/11/10 12:33:57;;;;;;;;;;;;;;;26.04;40.91;93041.56;4948385;28;7002;-58
2023/11/10 12:36:37;;;;;;;;;;;;;;;26.00;40.33;93029.44;4956365;28;8792;-58
2023/11/10 12:39:36;;;;;;;;;;;;;;;25.96;41.07;93043.56;4936151;28;9199;-58
2023/11/10 12:42:05;;;;;;;;;;;;;;;25.95;40.23;93041.34;4899488;29;9402;-58
2023/11/10 12:44:33;;;;;;;;;;;;;;;25.92;40.67;93032.19;4895431;29;8965;-57
2023/11/10 12:47:32;;;;;;;;;;;;;;;25.91;39.37;93040.97;4881498;29;8972;-57
2023/11/10 12:49:59;;;;;;;;;;;;;;;25.87;39.06;93037.84;4879145;29;7009;-58
2023/11/10 12:52:59;;;;;;;;;;;;;;;25.81;36.78;93032.50;4890964;29;7065;-58
2023/11/10 12:55:34;;;;;;;;;;;;;;;25.68;34.88;93027.13;4891140;29;7223;-59
2023/11/10 12:58:33;;;;;;;;;;;;;;;25.68;35.71;93040.13;4931593;29;6992;-59
2023/11/10 13:01:29;;;;;;;;;;;;;;;25.69;36.71;93042.34;4861902;29;7346;-59
2023/11/10 13:04:15;;;;;;;;;;;;;;;25.74;37.20;93051.72;4837428;29;7203;-59
2023/11/10 13:06:56;;;;;;;;;;;;;;;25.78;36.78;93047.34;4835427;29;7193;-58
2023/11/10 13:09:33;;;;;;;;;;;;;;;25.88;36.68;93064.81;4842670;29;9091;-58
2023/11/10 13:12:10;;;;;;;;;;;;;;;25.96;37.32;93060.09;4841680;29;7250;-59
2023/11/10 13:14:44;;;;;;;;;;;;;;;26.05;37.19;93062.34;4840182;29;7604;-59
2023/11/10 13:17:36;;;;;;;;;;;;;;;26.09;36.24;93057.25;4870366;29;7515;-59
2023/11/10 13:20:09;;;;;;;;;;;;;;;26.13;36.73;93049.34;4897660;29;7078;-59
2023/11/10 13:22:43;;;;;;;;;;;;;;;26.20;36.32;93044.41;4928001;29;7427;-59
2023/11/10 13:25:39;;;;;;;;;;;;;;;26.22;36.50;93042.59;4913858;29;8811;-59
2023/11/10 13:28:25;;;;;;;;;;;;;;;26.16;36.31;93053.75;4882656;29;9216;-59
2023/11/10 13:31:09;;;;;;;;;;;;;;;26.09;36.58;93054.50;4879532;29;7316;-59
2023/11/10 13:33:36;;;;;;;;;;;;;;;26.12;37.14;93064.41;4864025;29;9226;-59
2023/11/10 13:36:29;;;;;;;;;;;;;;;26.20;37.82;93061.69;4887549;29;7089;-59
2023/11/10 13:39:06;;;;;;;;;;;;;;;26.21;38.86;93062.44;4915479;29;7329;-59
2023/11/10 13:42:10;;;;;;;;;;;;;;;26.27;38.84;93077.50;4974557;28;9035;-58
2023/11/10 13:44:45;;;;;;;;;;;;;;;26.35;38.86;93077.53;4974281;28;7336;-59
2023/11/10 13:47:12;;;;;;;;;;;;;;;26.39;39.31;93069.63;4982733;28;9135;-59
2023/11/10 13:49:59;;;;;;;;;;;;;;;26.46;38.82;93068.91;4960391;28;7452;-58
2023/11/10 13:52:39;;;;;;;;;;;;;;;26.47;39.65;93056.63;4976861;28;9265;-59
2023/11/10 13:55:46;;;;;;;;;;;;;;;26.52;39.48;93059.19;4955860;28;9343;-59
2023/11/10 13:58:33;;;;;;;;;;;;;;;26.55;39.50;93060.13;4947055;28;9549;-59
2023/11/10 14:01:15;;;;;;;;;;;;;;;26.55;39.53;93062.88;4961645;28;7291;-59
2023/11/10 14:03:51;;;;;;;;;;;;;;;26.61;39.59;93071.72;4964645;28;7373;-59
2023/11/10 14:06:17;;;;;;;;;;;;;;;26.59;39.04;93069.50;5014517;28;7060;-59
2023/11/10 14:08:45;;;;;;;;;;;;;;;26.56;39.50;93076.09;5033082;28;7242;-58
2023/11/10 14:11:26;;;;;;;;;;;;;;;26.50;39.75;93074.81;5022666;28;8766;-59
2023/11/10 14:14:25;;;;;;;;;;;;;;;26.48;39.44;93077.38;5025497;28;7694;-58
2023/11/10 14:17:10;;;;;;;;;;;;;;;26.38;39.34;93068.88;4950866;28;7083;-65
2023/11/10 14:20:12;;;;;;;;;;;;;;;26.41;40.00;93075.34;4954989;28;8878;-65
2023/11/10 14:22:56;;;;;;;;;;;;;;;26.44;40.43;93061.19;4934260;29;7478;-53